createdAt,value
2019-03-26T00:00:03.163Z,13.41
2019-03-26T00:02:32.014Z,13.55
2019-03-26T00:05:00.932Z,13.36
2019-03-26T00:07:29.795Z,13.28
2019-03-26T00:09:59.493Z,12.93
2019-03-26T00:12:28.415Z,13.03
2019-03-26T00:14:57.283Z,13.03
2019-03-26T00:17:26.149Z,13.27
2019-03-26T00:19:55.071Z,13.26
2019-03-26T00:22:23.939Z,12.98
2019-03-26T00:24:52.807Z,11.80
2019-03-26T00:27:21.736Z,12.04
2019-03-26T00:29:50.590Z,12.12
2019-03-26T00:32:19.442Z,12.61
2019-03-26T00:34:48.378Z,12.60
2019-03-26T00:37:17.252Z,12.49
2019-03-26T00:39:46.119Z,12.05
2019-03-26T00:42:15.036Z,11.71
2019-03-26T00:44:43.879Z,11.41
2019-03-26T00:47:12.744Z,11.66
2019-03-26T00:49:41.668Z,12.59
2019-03-26T00:52:10.523Z,12.14
2019-03-26T00:54:39.380Z,12.23
2019-03-26T00:57:08.313Z,12.53
2019-03-26T00:59:37.169Z,12.82
2019-03-26T01:02:06.131Z,12.90
2019-03-26T01:04:35.154Z,12.70
2019-03-26T01:07:04.111Z,11.22
2019-03-26T01:09:32.969Z,11.41
2019-03-26T01:12:01.908Z,11.55
2019-03-26T01:14:30.761Z,11.33
2019-03-26T01:16:59.621Z,11.16
2019-03-26T01:19:28.547Z,11.54
2019-03-26T01:21:57.420Z,11.60
2019-03-26T01:24:26.281Z,11.34
2019-03-26T01:26:55.305Z,10.78
2019-03-26T01:29:24.168Z,10.65
2019-03-26T01:31:53.024Z,10.80
2019-03-26T01:34:21.940Z,10.67
2019-03-26T01:36:50.815Z,10.85
2019-03-26T01:39:19.692Z,10.96
2019-03-26T01:41:48.608Z,11.56
2019-03-26T01:44:17.460Z,11.69
2019-03-26T01:46:46.337Z,11.34
2019-03-26T01:49:15.247Z,11.93
2019-03-26T01:51:44.103Z,11.98
2019-03-26T01:54:13.067Z,11.96
2019-03-26T01:56:41.979Z,12.29
2019-03-26T01:59:10.838Z,12.07
2019-03-26T02:01:39.702Z,11.87
2019-03-26T02:04:08.617Z,12.13
2019-03-26T02:06:37.469Z,11.34
2019-03-26T02:09:06.931Z,11.23
2019-03-26T02:11:35.873Z,11.66
2019-03-26T02:14:04.580Z,11.69
2019-03-26T02:16:33.289Z,11.95
2019-03-26T02:19:01.980Z,11.77
2019-03-26T02:21:30.603Z,11.74
2019-03-26T02:23:59.230Z,11.32
2019-03-26T02:26:27.887Z,11.30
2019-03-26T02:28:56.516Z,11.57
2019-03-26T02:31:25.149Z,11.59
2019-03-26T02:33:53.819Z,11.84
2019-03-26T02:36:22.440Z,11.25
2019-03-26T02:38:51.055Z,11.22
2019-03-26T02:41:19.711Z,10.76
2019-03-26T02:43:48.346Z,11.08
2019-03-26T02:46:16.963Z,11.30
2019-03-26T02:48:45.630Z,10.98
2019-03-26T02:51:14.260Z,10.60
2019-03-26T02:53:42.894Z,10.02
2019-03-26T02:56:11.553Z,10.11
2019-03-26T02:58:40.179Z,10.35
2019-03-26T03:01:08.797Z,9.69
2019-03-26T03:03:37.470Z,10.09
2019-03-26T03:06:06.089Z,9.67
2019-03-26T03:08:34.721Z,9.73
2019-03-26T03:11:03.626Z,8.97
2019-03-26T03:13:32.252Z,8.97
2019-03-26T03:16:00.871Z,9.22
2019-03-26T03:18:29.529Z,9.45
2019-03-26T03:20:58.156Z,9.45
2019-03-26T03:23:26.775Z,8.95
2019-03-26T03:25:55.462Z,8.95
2019-03-26T03:28:24.088Z,8.85
2019-03-26T03:30:52.739Z,8.85
2019-03-26T03:33:21.377Z,8.66
2019-03-26T03:35:52.575Z,8.71
2019-03-26T03:38:20.345Z,8.71
2019-03-26T03:40:48.997Z,8.44
2019-03-26T03:43:17.640Z,9.07
2019-03-26T03:45:46.545Z,8.62
2019-03-26T03:48:15.199Z,8.44
2019-03-26T03:50:44.815Z,7.92
2019-03-26T03:53:16.748Z,8.21
2019-03-26T03:55:45.608Z,8.08
2019-03-26T03:58:16.129Z,8.10
2019-03-26T04:00:44.765Z,8.16
2019-03-26T04:03:13.525Z,7.92
2019-03-26T04:05:42.150Z,8.11
2019-03-26T04:08:10.763Z,8.11
2019-03-26T04:10:39.480Z,8.10
2019-03-26T04:13:08.321Z,8.63
2019-03-26T04:15:37.033Z,8.03
2019-03-26T04:18:05.684Z,8.66
2019-03-26T04:20:34.487Z,8.36
2019-03-26T04:23:03.100Z,8.29
2019-03-26T04:25:31.771Z,8.26
2019-03-26T04:28:00.400Z,8.21
2019-03-26T04:30:30.219Z,8.97
2019-03-26T04:32:58.876Z,8.49
2019-03-26T04:35:27.510Z,8.95
2019-03-26T04:37:56.225Z,8.73
2019-03-26T04:40:24.877Z,9.05
2019-03-26T04:42:53.496Z,8.56
2019-03-26T04:45:22.129Z,8.56
2019-03-26T04:47:50.791Z,8.54
2019-03-26T04:50:19.433Z,8.52
2019-03-26T04:52:48.050Z,9.28
2019-03-26T04:55:16.701Z,8.06
2019-03-26T04:57:45.329Z,7.77
2019-03-26T05:00:14.359Z,8.52
2019-03-26T05:02:43.030Z,7.99
2019-03-26T05:05:12.525Z,8.19
2019-03-26T05:07:41.271Z,8.76
2019-03-26T05:10:10.041Z,8.13
2019-03-26T05:12:38.671Z,8.23
2019-03-26T05:15:07.395Z,8.29
2019-03-26T05:17:36.061Z,8.71
2019-03-26T05:20:06.385Z,8.38
2019-03-26T05:22:35.207Z,8.01
2019-03-26T05:25:05.163Z,8.03
2019-03-26T05:27:44.801Z,7.96
2019-03-26T05:30:07.505Z,8.40
2019-03-26T05:32:36.216Z,7.84
2019-03-26T05:35:05.350Z,7.54
2019-03-26T05:37:33.969Z,7.96
2019-03-26T05:40:02.627Z,7.86
2019-03-26T05:42:31.249Z,8.61
2019-03-26T05:44:59.868Z,7.60
2019-03-26T05:47:28.533Z,7.73
2019-03-26T05:49:57.166Z,7.33
2019-03-26T05:52:25.789Z,8.12
2019-03-26T05:54:54.452Z,8.03
2019-03-26T05:57:23.076Z,8.20
2019-03-26T05:59:51.708Z,7.63
2019-03-26T06:02:20.389Z,7.63
2019-03-26T06:04:49.009Z,8.15
2019-03-26T06:07:17.628Z,8.19
2019-03-26T06:09:46.290Z,8.82
2019-03-26T06:12:14.906Z,8.94
2019-03-26T06:14:43.535Z,8.42
2019-03-26T06:17:12.200Z,8.22
2019-03-26T06:19:40.817Z,8.83
2019-03-26T06:22:09.434Z,8.31
2019-03-26T06:24:38.090Z,8.30
2019-03-26T06:27:06.709Z,8.67
2019-03-26T06:29:35.332Z,8.11
2019-03-26T06:32:03.981Z,8.43
2019-03-26T06:34:32.595Z,8.49
2019-03-26T06:37:01.222Z,9.00
2019-03-26T06:39:29.867Z,8.99
2019-03-26T06:41:58.486Z,8.36
2019-03-26T06:44:27.116Z,9.12
2019-03-26T06:46:55.782Z,8.64
2019-03-26T06:49:24.396Z,9.38
2019-03-26T06:51:53.022Z,8.72
2019-03-26T06:54:21.666Z,8.72
2019-03-26T06:56:50.326Z,9.10
2019-03-26T06:59:18.985Z,8.38
2019-03-26T07:01:47.733Z,8.35
2019-03-26T07:04:16.357Z,8.42
2019-03-26T07:06:45.052Z,8.30
2019-03-26T07:09:13.720Z,8.86
2019-03-26T07:11:42.353Z,8.86
2019-03-26T07:14:10.965Z,9.23
2019-03-26T07:16:39.649Z,8.67
2019-03-26T07:19:08.277Z,9.06
2019-03-26T07:21:49.150Z,8.62
2019-03-26T07:24:07.390Z,9.25
2019-03-26T07:26:36.015Z,9.50
2019-03-26T07:29:04.648Z,9.32
2019-03-26T07:31:33.312Z,9.44
2019-03-26T07:34:01.931Z,9.11
2019-03-26T07:36:30.557Z,9.11
2019-03-26T07:38:59.213Z,9.40
2019-03-26T07:41:27.827Z,9.38
2019-03-26T07:43:56.462Z,8.74
2019-03-26T07:46:25.110Z,9.30
2019-03-26T07:48:53.805Z,9.74
2019-03-26T07:51:22.430Z,9.51
2019-03-26T07:53:51.087Z,9.21
2019-03-26T07:56:19.706Z,9.92
2019-03-26T07:58:48.330Z,9.30
2019-03-26T08:01:17.007Z,9.66
2019-03-26T08:03:45.608Z,9.95
2019-03-26T08:06:14.235Z,9.96
2019-03-26T08:08:42.893Z,9.23
2019-03-26T08:11:11.523Z,9.41
2019-03-26T08:13:41.110Z,9.82
2019-03-26T08:16:09.776Z,9.41
2019-03-26T08:18:38.401Z,9.93
2019-03-26T08:21:07.014Z,9.70
2019-03-26T08:23:38.339Z,9.67
2019-03-26T08:26:06.028Z,10.32
2019-03-26T08:28:34.720Z,9.64
2019-03-26T08:31:03.396Z,9.95
2019-03-26T08:33:32.025Z,9.36
2019-03-26T08:36:00.662Z,9.26
2019-03-26T08:38:29.316Z,9.69
2019-03-26T08:40:57.940Z,9.45
2019-03-26T08:43:26.557Z,9.77
2019-03-26T08:45:55.216Z,10.06
2019-03-26T08:48:23.841Z,10.02
2019-03-26T08:50:52.532Z,9.59
2019-03-26T08:53:21.203Z,10.01
2019-03-26T08:55:49.858Z,10.01
2019-03-26T08:58:18.461Z,10.06
2019-03-26T09:00:47.124Z,9.67
2019-03-26T09:03:15.750Z,9.97
2019-03-26T09:05:44.379Z,10.18
2019-03-26T09:08:24.831Z,10.61
2019-03-26T09:10:51.777Z,10.38
2019-03-26T09:13:13.795Z,11.28
2019-03-26T09:15:42.477Z,11.00
2019-03-26T09:18:11.129Z,10.74
2019-03-26T09:20:39.807Z,10.26
2019-03-26T09:23:08.467Z,10.44
2019-03-26T09:25:37.115Z,10.13
2019-03-26T09:28:05.733Z,10.32
2019-03-26T09:30:34.393Z,9.93
2019-03-26T09:33:03.034Z,10.22
2019-03-26T09:35:31.683Z,10.19
2019-03-26T09:38:00.351Z,10.21
2019-03-26T09:40:28.991Z,10.17
2019-03-26T09:42:57.617Z,9.92
2019-03-26T09:45:26.301Z,9.76
2019-03-26T09:47:54.913Z,10.01
2019-03-26T09:50:36.294Z,10.51
2019-03-26T09:53:05.228Z,11.04
2019-03-26T09:55:33.853Z,10.62
2019-03-26T09:58:02.581Z,10.86
2019-03-26T10:00:31.326Z,11.26
2019-03-26T10:03:00.009Z,11.12
2019-03-26T10:05:28.668Z,10.65
2019-03-26T10:07:57.286Z,10.37
2019-03-26T10:10:25.920Z,9.98
2019-03-26T10:12:54.575Z,10.21
2019-03-26T10:15:23.202Z,10.03
2019-03-26T10:17:51.824Z,10.33
2019-03-26T10:20:20.491Z,9.88
2019-03-26T10:22:49.115Z,10.40
2019-03-26T10:25:17.737Z,10.77
2019-03-26T10:27:46.396Z,10.94
2019-03-26T10:30:17.927Z,11.39
2019-03-26T10:32:46.569Z,11.54
2019-03-26T10:35:15.226Z,10.91
2019-03-26T10:37:43.849Z,11.12
2019-03-26T10:40:15.384Z,10.74
2019-03-26T10:42:44.047Z,11.10
2019-03-26T10:45:12.876Z,11.43
2019-03-26T10:47:41.502Z,11.34
2019-03-26T10:50:10.262Z,10.96
2019-03-26T10:52:38.889Z,11.40
2019-03-26T10:55:07.612Z,11.76
2019-03-26T10:57:36.384Z,11.85
2019-03-26T11:00:08.030Z,11.01
2019-03-26T11:02:36.734Z,10.81
2019-03-26T11:05:06.807Z,10.96
2019-03-26T11:07:35.425Z,11.05
2019-03-26T11:10:07.445Z,11.23
2019-03-26T11:12:36.103Z,10.75
2019-03-26T11:15:11.590Z,11.04
2019-03-26T11:17:40.217Z,10.99
2019-03-26T11:20:09.361Z,10.33
2019-03-26T11:22:37.976Z,10.62
2019-03-26T11:25:08.504Z,11.11
2019-03-26T11:27:37.165Z,10.99
2019-03-26T11:30:07.203Z,10.59
2019-03-26T11:32:35.828Z,10.39
2019-03-26T11:35:06.395Z,10.29
2019-03-26T11:37:35.020Z,10.29
2019-03-26T11:40:04.145Z,10.59
2019-03-26T11:42:32.806Z,10.66
2019-03-26T11:45:01.437Z,10.39
2019-03-26T11:47:30.056Z,10.27
2019-03-26T11:49:58.718Z,10.46
2019-03-26T11:52:27.345Z,11.06
2019-03-26T11:54:55.972Z,11.15
2019-03-26T11:57:24.633Z,10.68
2019-03-26T11:59:53.263Z,10.87
2019-03-26T12:02:22.045Z,10.31
2019-03-26T12:04:50.811Z,10.49
2019-03-26T12:07:19.440Z,11.33
2019-03-26T12:09:48.076Z,10.89
2019-03-26T12:12:16.740Z,10.64
2019-03-26T12:14:45.370Z,10.22
2019-03-26T12:17:15.031Z,10.56
2019-03-26T12:19:43.841Z,10.81
2019-03-26T12:22:12.477Z,11.33
2019-03-26T12:24:41.103Z,11.67
2019-03-26T12:27:09.763Z,11.60
2019-03-26T12:29:38.395Z,11.91
2019-03-26T12:32:07.041Z,11.06
2019-03-26T12:34:35.701Z,12.06
2019-03-26T12:37:04.326Z,11.58
2019-03-26T12:39:32.956Z,10.84
2019-03-26T12:42:01.625Z,10.95
2019-03-26T12:44:30.305Z,11.47
2019-03-26T12:46:58.978Z,11.57
2019-03-26T12:49:27.651Z,11.38
2019-03-26T12:51:56.411Z,11.21
2019-03-26T12:54:25.060Z,11.21
2019-03-26T12:56:53.742Z,11.48
2019-03-26T12:59:22.369Z,11.26
2019-03-26T13:01:50.995Z,11.32
2019-03-26T13:04:19.647Z,11.60
2019-03-26T13:06:48.281Z,11.50
2019-03-26T13:09:16.916Z,11.47
2019-03-26T13:11:45.646Z,12.12
2019-03-26T13:14:14.271Z,12.05
2019-03-26T13:16:42.912Z,12.10
2019-03-26T13:19:11.574Z,11.80
2019-03-26T13:21:40.203Z,11.98
2019-03-26T13:24:11.290Z,12.57
2019-03-26T13:26:39.258Z,12.35
2019-03-26T13:29:07.884Z,13.17
2019-03-26T13:31:36.526Z,13.29
2019-03-26T13:34:05.197Z,12.62
2019-03-26T13:36:33.827Z,12.63
2019-03-26T13:39:02.447Z,13.23
2019-03-26T13:41:31.114Z,12.09
2019-03-26T13:43:59.747Z,12.05
2019-03-26T13:46:28.378Z,11.95
2019-03-26T13:48:57.958Z,12.19
2019-03-26T13:51:26.592Z,13.03
2019-03-26T13:53:55.221Z,12.96
2019-03-26T13:56:23.885Z,12.45
2019-03-26T13:58:52.510Z,12.05
2019-03-26T14:01:21.144Z,12.62
2019-03-26T14:03:50.006Z,13.19
2019-03-26T14:06:18.649Z,13.79
2019-03-26T14:08:47.285Z,13.25
2019-03-26T14:11:15.958Z,12.81
2019-03-26T14:13:44.584Z,12.74
2019-03-26T14:16:13.203Z,12.49
2019-03-26T14:18:41.879Z,12.85
2019-03-26T14:21:10.598Z,12.67
2019-03-26T14:23:39.225Z,12.61
2019-03-26T14:26:07.890Z,12.99
2019-03-26T14:28:36.547Z,13.18
2019-03-26T14:31:05.215Z,13.48
2019-03-26T14:33:33.884Z,13.78
2019-03-26T14:36:03.093Z,14.07
2019-03-26T14:38:31.722Z,14.09
2019-03-26T14:41:00.392Z,12.90
2019-03-26T14:43:29.094Z,11.89
2019-03-26T14:45:57.753Z,12.92
2019-03-26T14:48:26.415Z,13.06
2019-03-26T14:50:55.034Z,12.97
2019-03-26T14:53:23.657Z,12.92
2019-03-26T14:55:52.394Z,12.43
2019-03-26T14:58:21.036Z,11.88
2019-03-26T15:00:49.670Z,11.24
2019-03-26T15:03:18.355Z,11.43
2019-03-26T15:05:46.972Z,11.78
2019-03-26T15:08:15.604Z,12.21
2019-03-26T15:10:44.279Z,12.17
2019-03-26T15:13:12.907Z,11.39
2019-03-26T15:15:41.534Z,11.48
2019-03-26T15:18:10.207Z,11.30
2019-03-26T15:20:38.828Z,11.27
2019-03-26T15:23:07.453Z,11.18
2019-03-26T15:25:36.106Z,11.49
2019-03-26T15:28:04.730Z,11.08
2019-03-26T15:30:33.355Z,10.94
2019-03-26T15:33:02.095Z,11.12
2019-03-26T15:35:30.714Z,10.59
2019-03-26T15:37:59.350Z,10.92
2019-03-26T15:40:28.074Z,11.31
2019-03-26T15:42:56.701Z,12.35
2019-03-26T15:45:25.338Z,12.58
2019-03-26T15:47:54.016Z,12.58
2019-03-26T15:50:36.743Z,12.55
2019-03-26T15:53:05.496Z,12.99
2019-03-26T15:55:34.127Z,12.06
2019-03-26T15:58:02.759Z,11.04
2019-03-26T16:00:31.422Z,11.75
2019-03-26T16:03:00.060Z,12.10
2019-03-26T16:05:28.689Z,11.38
2019-03-26T16:08:00.421Z,10.95
2019-03-26T16:10:27.776Z,10.37
2019-03-26T16:12:56.400Z,10.74
2019-03-26T16:15:25.055Z,10.87
2019-03-26T16:17:53.676Z,10.37
2019-03-26T16:20:22.306Z,10.80
2019-03-26T16:22:50.962Z,11.00
2019-03-26T16:25:19.590Z,11.21
2019-03-26T16:27:48.208Z,11.60
2019-03-26T16:30:17.968Z,11.74
2019-03-26T16:32:46.663Z,11.35
2019-03-26T16:35:15.297Z,11.08
2019-03-26T16:37:43.945Z,11.12
2019-03-26T16:40:12.572Z,10.64
2019-03-26T16:42:41.207Z,10.19
2019-03-26T16:45:09.868Z,10.08
2019-03-26T16:47:38.487Z,9.81
2019-03-26T16:50:08.521Z,10.17
2019-03-26T16:52:37.185Z,10.39
2019-03-26T16:55:06.806Z,10.22
2019-03-26T16:57:35.429Z,10.27
2019-03-26T17:00:05.321Z,10.14
2019-03-26T17:02:33.947Z,10.08
2019-03-26T17:05:02.577Z,10.40
2019-03-26T17:07:31.228Z,10.18
2019-03-26T17:09:59.858Z,10.08
2019-03-26T17:12:28.482Z,10.83
2019-03-26T17:14:57.144Z,9.89
2019-03-26T17:17:25.773Z,10.43
2019-03-26T17:19:57.402Z,10.63
2019-03-26T17:22:26.629Z,10.24
2019-03-26T17:24:55.261Z,10.64
2019-03-26T17:27:23.895Z,10.16
2019-03-26T17:29:52.635Z,10.36
2019-03-26T17:32:21.273Z,10.44
2019-03-26T17:34:49.915Z,10.19
2019-03-26T17:37:18.591Z,10.44
2019-03-26T17:39:47.293Z,10.92
2019-03-26T17:42:17.419Z,11.02
2019-03-26T17:44:46.365Z,10.47
2019-03-26T17:47:14.989Z,11.13
2019-03-26T17:49:43.634Z,10.90
2019-03-26T17:52:12.301Z,10.80
2019-03-26T17:54:40.935Z,11.14
2019-03-26T17:57:09.566Z,10.90
2019-03-26T17:59:38.230Z,10.79
2019-03-26T18:02:06.935Z,10.98
2019-03-26T18:04:35.767Z,11.40
2019-03-26T18:07:05.643Z,11.72
2019-03-26T18:09:34.352Z,11.94
2019-03-26T18:12:02.981Z,11.73
2019-03-26T18:14:31.651Z,11.79
2019-03-26T18:17:00.355Z,11.69
2019-03-26T18:19:29.060Z,11.87
2019-03-26T18:21:57.733Z,11.75
2019-03-26T18:24:26.370Z,11.42
2019-03-26T18:26:57.996Z,11.56
2019-03-26T18:29:26.677Z,12.03
2019-03-26T18:31:55.305Z,11.61
2019-03-26T18:34:24.019Z,11.81
2019-03-26T18:36:52.714Z,12.06
2019-03-26T18:39:21.403Z,12.09
2019-03-26T18:41:50.032Z,11.98
2019-03-26T18:44:19.663Z,12.00
2019-03-26T18:46:48.311Z,11.64
2019-03-26T18:49:16.917Z,11.78
2019-03-26T18:51:45.590Z,11.64
2019-03-26T18:54:14.223Z,11.82
2019-03-26T18:56:42.921Z,11.82
2019-03-26T18:59:11.598Z,12.06
2019-03-26T19:01:40.226Z,11.61
2019-03-26T19:04:08.855Z,11.40
2019-03-26T19:06:37.590Z,11.73
2019-03-26T19:09:06.593Z,11.30
2019-03-26T19:11:35.230Z,11.53
2019-03-26T19:14:04.027Z,10.52
2019-03-26T19:16:32.735Z,10.33
2019-03-26T19:19:01.364Z,11.28
2019-03-26T19:21:30.032Z,11.42
2019-03-26T19:24:04.633Z,11.10
2019-03-26T19:26:29.087Z,10.80
2019-03-26T19:28:57.827Z,10.49
2019-03-26T19:31:26.530Z,9.58
2019-03-26T19:33:55.153Z,9.24
2019-03-26T19:36:23.837Z,10.14
2019-03-26T19:38:52.476Z,10.36
2019-03-26T19:41:21.121Z,10.23
2019-03-26T19:43:49.808Z,10.65
2019-03-26T19:46:18.517Z,10.61
2019-03-26T19:48:47.153Z,10.00
2019-03-26T19:51:15.822Z,10.74
2019-03-26T19:53:44.553Z,10.93
2019-03-26T19:56:13.172Z,10.19
2019-03-26T19:58:41.831Z,10.18
2019-03-26T20:01:10.467Z,9.93
2019-03-26T20:03:39.161Z,10.73
2019-03-26T20:06:13.547Z,10.06
2019-03-26T20:08:38.331Z,9.72
2019-03-26T20:11:06.964Z,10.08
2019-03-26T20:13:35.712Z,9.71
2019-03-26T20:16:04.338Z,10.68
2019-03-26T20:18:32.957Z,9.80
2019-03-26T20:21:01.697Z,9.07
2019-03-26T20:23:30.325Z,9.07
2019-03-26T20:25:58.952Z,9.56
2019-03-26T20:28:27.633Z,8.98
2019-03-26T20:30:56.259Z,8.52
2019-03-26T20:33:24.878Z,8.77
2019-03-26T20:35:53.614Z,9.06
2019-03-26T20:38:23.886Z,9.14
2019-03-26T20:40:52.575Z,8.60
2019-03-26T20:43:21.266Z,9.07
2019-03-26T20:45:49.894Z,8.76
2019-03-26T20:48:18.596Z,8.61
2019-03-26T20:50:47.264Z,8.86
2019-03-26T20:53:15.893Z,8.77
2019-03-26T20:55:54.150Z,9.64
2019-03-26T20:58:14.912Z,9.58
2019-03-26T21:00:43.715Z,9.18
2019-03-26T21:03:12.337Z,9.15
2019-03-26T21:05:41.003Z,9.18
2019-03-26T21:08:09.634Z,8.91
2019-03-26T21:10:38.382Z,9.27
2019-03-26T21:13:07.076Z,9.27
2019-03-26T21:15:35.689Z,9.65
2019-03-26T21:18:04.421Z,9.33
2019-03-26T21:20:33.077Z,9.48
2019-03-26T21:23:01.702Z,8.93
2019-03-26T21:25:30.396Z,9.18
2019-03-26T21:27:59.055Z,9.18
2019-03-26T21:30:27.674Z,8.90
2019-03-26T21:32:56.365Z,8.75
2019-03-26T21:35:28.579Z,8.40
2019-03-26T21:37:55.455Z,8.40
2019-03-26T21:40:24.082Z,8.55
2019-03-26T21:42:52.786Z,8.07
2019-03-26T21:45:35.287Z,8.66
2019-03-26T21:48:05.443Z,8.87
2019-03-26T21:50:34.168Z,8.41
2019-03-26T21:53:02.785Z,8.18
2019-03-26T21:55:31.432Z,7.98
2019-03-26T21:58:00.056Z,8.26
2019-03-26T22:00:28.754Z,8.23
2019-03-26T22:02:57.415Z,8.50
2019-03-26T22:05:26.042Z,8.93
2019-03-26T22:07:54.668Z,8.72
2019-03-26T22:10:23.309Z,8.76
2019-03-26T22:12:51.950Z,9.63
2019-03-26T22:15:20.574Z,8.95
2019-03-26T22:17:49.232Z,9.48
2019-03-26T22:20:17.859Z,8.87
2019-03-26T22:22:46.528Z,8.29
2019-03-26T22:25:15.916Z,8.82
2019-03-26T22:27:44.529Z,8.69
2019-03-26T22:30:14.895Z,8.16
2019-03-26T22:32:43.561Z,8.23
2019-03-26T22:35:12.277Z,8.67
2019-03-26T22:37:40.897Z,8.52
2019-03-26T22:40:10.549Z,8.47
2019-03-26T22:42:39.178Z,8.41
2019-03-26T22:45:09.600Z,8.76
2019-03-26T22:47:40.960Z,9.28
2019-03-26T22:50:10.680Z,8.88
2019-03-26T22:52:39.376Z,8.25
2019-03-26T22:55:09.524Z,8.25
2019-03-26T22:57:38.643Z,8.67
2019-03-26T23:00:20.802Z,9.06
2019-03-26T23:02:49.424Z,8.93
2019-03-26T23:05:18.617Z,8.80
2019-03-26T23:07:47.260Z,8.11
2019-03-26T23:10:17.541Z,7.85
2019-03-26T23:12:46.332Z,8.59
2019-03-26T23:15:24.123Z,9.13
2019-03-26T23:17:52.855Z,9.31
2019-03-26T23:20:21.484Z,8.44
2019-03-26T23:22:50.132Z,8.81
2019-03-26T23:25:18.747Z,8.49
2019-03-26T23:27:47.362Z,8.05
2019-03-26T23:30:16.516Z,8.04
2019-03-26T23:32:45.149Z,8.74
2019-03-26T23:35:13.857Z,8.62
2019-03-26T23:37:42.712Z,9.09
2019-03-26T23:40:12.528Z,9.04
2019-03-26T23:42:41.164Z,9.31
2019-03-26T23:45:11.027Z,8.79
2019-03-26T23:47:39.649Z,8.34
2019-03-26T23:50:09.671Z,8.69
2019-03-26T23:52:38.312Z,8.44
2019-03-26T23:55:08.432Z,8.53
2019-03-26T23:57:37.674Z,8.81
